sensor_id;sensor_type;location;lat;lon;timestamp;P1;durP1;ratioP1;P2;durP2;ratioP2
21202;SDS011;10759;51.982;9.232;2022-07-29T00:01:19;2.08;;;1.35;;
21202;SDS011;10759;51.982;9.232;2022-07-29T00:03:47;9.38;;;1.85;;
21202;SDS011;10759;51.982;9.232;2022-07-29T00:06:15;2.45;;;1.58;;
21202;SDS011;10759;51.982;9.232;2022-07-29T00:08:43;3.28;;;1.55;;
21202;SDS011;10759;51.982;9.232;2022-07-29T00:11:12;4.90;;;1.55;;
21202;SDS011;10759;51.982;9.232;2022-07-29T00:13:41;3.28;;;1.45;;
21202;SDS011;10759;51.982;9.232;2022-07-29T00:16:16;5.20;;;1.80;;
21202;SDS011;10759;51.982;9.232;2022-07-29T00:18:44;2.92;;;1.65;;
21202;SDS011;10759;51.982;9.232;2022-07-29T00:21:12;7.13;;;1.70;;
21202;SDS011;10759;51.982;9.232;2022-07-29T00:23:41;6.93;;;1.60;;
21202;SDS011;10759;51.982;9.232;2022-07-29T00:26:09;4.05;;;1.42;;
21202;SDS011;10759;51.982;9.232;2022-07-29T00:28:37;4.20;;;1.60;;
21202;SDS011;10759;51.982;9.232;2022-07-29T00:31:06;2.80;;;1.52;;
21202;SDS011;10759;51.982;9.232;2022-07-29T00:33:35;4.28;;;1.50;;
21202;SDS011;10759;51.982;9.232;2022-07-29T00:36:03;2.38;;;1.40;;
21202;SDS011;10759;51.982;9.232;2022-07-29T00:38:31;5.43;;;1.90;;
21202;SDS011;10759;51.982;9.232;2022-07-29T00:40:59;3.63;;;1.58;;
21202;SDS011;10759;51.982;9.232;2022-07-29T00:43:27;4.07;;;1.63;;
21202;SDS011;10759;51.982;9.232;2022-07-29T00:45:55;4.25;;;2.08;;
21202;SDS011;10759;51.982;9.232;2022-07-29T00:48:25;6.55;;;1.77;;
21202;SDS011;10759;51.982;9.232;2022-07-29T00:50:54;5.70;;;1.95;;
21202;SDS011;10759;51.982;9.232;2022-07-29T00:53:25;4.53;;;1.55;;
21202;SDS011;10759;51.982;9.232;2022-07-29T00:55:54;6.32;;;1.73;;
21202;SDS011;10759;51.982;9.232;2022-07-29T00:58:22;3.00;;;1.35;;
21202;SDS011;10759;51.982;9.232;2022-07-29T01:00:52;2.35;;;1.40;;
21202;SDS011;10759;51.982;9.232;2022-07-29T01:03:20;2.08;;;1.27;;
21202;SDS011;10759;51.982;9.232;2022-07-29T01:05:50;3.08;;;1.48;;
21202;SDS011;10759;51.982;9.232;2022-07-29T01:08:18;6.82;;;2.00;;
21202;SDS011;10759;51.982;9.232;2022-07-29T01:10:47;2.85;;;1.48;;
21202;SDS011;10759;51.982;9.232;2022-07-29T01:13:20;6.20;;;2.25;;
21202;SDS011;10759;51.982;9.232;2022-07-29T01:15:49;4.88;;;2.17;;
21202;SDS011;10759;51.982;9.232;2022-07-29T01:18:24;3.90;;;1.70;;
21202;SDS011;10759;51.982;9.232;2022-07-29T01:24:11;4.47;;;1.80;;
21202;SDS011;10759;51.982;9.232;2022-07-29T01:26:52;6.43;;;1.85;;
21202;SDS011;10759;51.982;9.232;2022-07-29T01:29:26;4.82;;;1.67;;
21202;SDS011;10759;51.982;9.232;2022-07-29T01:32:05;3.17;;;1.70;;
21202;SDS011;10759;51.982;9.232;2022-07-29T01:34:54;2.65;;;1.52;;
21202;SDS011;10759;51.982;9.232;2022-07-29T01:37:26;1.98;;;1.50;;
21202;SDS011;10759;51.982;9.232;2022-07-29T01:39:59;3.13;;;1.58;;
21202;SDS011;10759;51.982;9.232;2022-07-29T01:42:32;2.65;;;1.50;;
21202;SDS011;10759;51.982;9.232;2022-07-29T01:45:08;4.90;;;1.55;;
21202;SDS011;10759;51.982;9.232;2022-07-29T01:47:42;3.08;;;1.70;;
21202;SDS011;10759;51.982;9.232;2022-07-29T01:50:14;5.25;;;1.60;;
21202;SDS011;10759;51.982;9.232;2022-07-29T01:52:46;3.30;;;1.50;;
21202;SDS011;10759;51.982;9.232;2022-07-29T01:55:19;7.75;;;1.73;;
21202;SDS011;10759;51.982;9.232;2022-07-29T01:57:51;5.90;;;2.03;;
21202;SDS011;10759;51.982;9.232;2022-07-29T02:00:22;5.53;;;1.55;;
21202;SDS011;10759;51.982;9.232;2022-07-29T02:02:52;3.05;;;1.30;;
21202;SDS011;10759;51.982;9.232;2022-07-29T02:05:21;5.97;;;1.73;;
21202;SDS011;10759;51.982;9.232;2022-07-29T02:07:52;6.82;;;2.03;;
21202;SDS011;10759;51.982;9.232;2022-07-29T02:10:22;6.95;;;2.25;;
21202;SDS011;10759;51.982;9.232;2022-07-29T02:12:55;2.38;;;1.77;;
21202;SDS011;10759;51.982;9.232;2022-07-29T02:15:26;8.15;;;2.47;;
21202;SDS011;10759;51.982;9.232;2022-07-29T02:17:58;4.28;;;1.38;;
21202;SDS011;10759;51.982;9.232;2022-07-29T02:20:29;3.15;;;1.50;;
21202;SDS011;10759;51.982;9.232;2022-07-29T02:22:58;4.32;;;2.13;;
21202;SDS011;10759;51.982;9.232;2022-07-29T02:25:28;3.25;;;1.80;;
21202;SDS011;10759;51.982;9.232;2022-07-29T02:28:03;4.03;;;1.55;;
21202;SDS011;10759;51.982;9.232;2022-07-29T02:30:34;3.42;;;1.50;;
21202;SDS011;10759;51.982;9.232;2022-07-29T02:33:06;5.75;;;1.58;;
21202;SDS011;10759;51.982;9.232;2022-07-29T02:35:38;4.72;;;1.45;;
21202;SDS011;10759;51.982;9.232;2022-07-29T02:38:10;6.88;;;1.60;;
21202;SDS011;10759;51.982;9.232;2022-07-29T02:41:08;2.35;;;1.63;;
21202;SDS011;10759;51.982;9.232;2022-07-29T02:43:38;2.85;;;1.67;;
21202;SDS011;10759;51.982;9.232;2022-07-29T02:46:10;3.23;;;1.57;;
21202;SDS011;10759;51.982;9.232;2022-07-29T02:48:56;3.05;;;1.55;;
21202;SDS011;10759;51.982;9.232;2022-07-29T02:51:32;3.53;;;2.42;;
21202;SDS011;10759;51.982;9.232;2022-07-29T02:54:14;2.85;;;1.60;;
21202;SDS011;10759;51.982;9.232;2022-07-29T02:56:48;3.13;;;1.60;;
21202;SDS011;10759;51.982;9.232;2022-07-29T02:59:21;2.65;;;1.80;;
21202;SDS011;10759;51.982;9.232;2022-07-29T03:01:54;3.83;;;1.77;;
21202;SDS011;10759;51.982;9.232;2022-07-29T03:04:24;2.83;;;1.60;;
21202;SDS011;10759;51.982;9.232;2022-07-29T03:06:55;4.75;;;1.63;;
21202;SDS011;10759;51.982;9.232;2022-07-29T03:09:25;2.78;;;1.17;;
21202;SDS011;10759;51.982;9.232;2022-07-29T03:11:55;2.13;;;1.55;;
21202;SDS011;10759;51.982;9.232;2022-07-29T03:14:24;3.33;;;1.48;;
21202;SDS011;10759;51.982;9.232;2022-07-29T03:16:55;2.47;;;1.43;;
21202;SDS011;10759;51.982;9.232;2022-07-29T03:19:24;5.15;;;1.85;;
21202;SDS011;10759;51.982;9.232;2022-07-29T03:21:55;5.03;;;2.03;;
21202;SDS011;10759;51.982;9.232;2022-07-29T03:24:33;4.30;;;1.77;;
21202;SDS011;10759;51.982;9.232;2022-07-29T03:27:03;6.72;;;1.80;;
21202;SDS011;10759;51.982;9.232;2022-07-29T03:29:32;6.17;;;1.87;;
21202;SDS011;10759;51.982;9.232;2022-07-29T03:32:03;4.75;;;2.28;;
21202;SDS011;10759;51.982;9.232;2022-07-29T03:34:34;7.45;;;2.83;;
21202;SDS011;10759;51.982;9.232;2022-07-29T03:37:02;4.25;;;1.73;;
21202;SDS011;10759;51.982;9.232;2022-07-29T03:39:31;4.35;;;2.10;;
21202;SDS011;10759;51.982;9.232;2022-07-29T03:42:02;3.40;;;1.65;;
21202;SDS011;10759;51.982;9.232;2022-07-29T03:44:32;4.30;;;2.77;;
21202;SDS011;10759;51.982;9.232;2022-07-29T03:47:00;6.28;;;2.30;;
21202;SDS011;10759;51.982;9.232;2022-07-29T03:49:31;1.95;;;1.75;;
21202;SDS011;10759;51.982;9.232;2022-07-29T03:52:03;2.35;;;1.55;;
21202;SDS011;10759;51.982;9.232;2022-07-29T03:54:32;1.63;;;1.45;;
21202;SDS011;10759;51.982;9.232;2022-07-29T03:57:03;3.38;;;1.40;;
21202;SDS011;10759;51.982;9.232;2022-07-29T03:59:33;4.43;;;1.60;;
21202;SDS011;10759;51.982;9.232;2022-07-29T04:02:04;3.15;;;1.83;;
21202;SDS011;10759;51.982;9.232;2022-07-29T04:04:33;3.05;;;1.92;;
21202;SDS011;10759;51.982;9.232;2022-07-29T04:07:01;5.10;;;1.83;;
21202;SDS011;10759;51.982;9.232;2022-07-29T04:09:30;3.78;;;2.10;;
21202;SDS011;10759;51.982;9.232;2022-07-29T04:11:59;3.83;;;2.05;;
21202;SDS011;10759;51.982;9.232;2022-07-29T04:14:30;4.20;;;2.08;;
21202;SDS011;10759;51.982;9.232;2022-07-29T04:16:59;3.22;;;2.50;;
21202;SDS011;10759;51.982;9.232;2022-07-29T04:19:29;7.43;;;2.20;;
21202;SDS011;10759;51.982;9.232;2022-07-29T04:21:57;2.78;;;1.90;;
21202;SDS011;10759;51.982;9.232;2022-07-29T04:24:27;3.23;;;2.20;;
21202;SDS011;10759;51.982;9.232;2022-07-29T04:26:56;2.78;;;1.77;;
21202;SDS011;10759;51.982;9.232;2022-07-29T04:29:24;5.22;;;1.83;;
21202;SDS011;10759;51.982;9.232;2022-07-29T04:31:52;4.38;;;1.70;;
21202;SDS011;10759;51.982;9.232;2022-07-29T04:34:20;3.95;;;1.83;;
21202;SDS011;10759;51.982;9.232;2022-07-29T04:36:54;5.57;;;1.83;;
21202;SDS011;10759;51.982;9.232;2022-07-29T04:39:23;3.95;;;2.17;;
21202;SDS011;10759;51.982;9.232;2022-07-29T04:41:55;4.25;;;1.92;;
21202;SDS011;10759;51.982;9.232;2022-07-29T04:44:24;5.95;;;1.90;;
21202;SDS011;10759;51.982;9.232;2022-07-29T04:46:55;6.55;;;1.90;;
21202;SDS011;10759;51.982;9.232;2022-07-29T04:49:24;4.00;;;1.92;;
21202;SDS011;10759;51.982;9.232;2022-07-29T04:51:52;5.63;;;1.98;;
21202;SDS011;10759;51.982;9.232;2022-07-29T04:54:22;3.38;;;1.65;;
21202;SDS011;10759;51.982;9.232;2022-07-29T04:56:51;6.37;;;2.30;;
21202;SDS011;10759;51.982;9.232;2022-07-29T04:59:20;5.88;;;2.13;;
21202;SDS011;10759;51.982;9.232;2022-07-29T05:01:48;5.13;;;1.88;;
21202;SDS011;10759;51.982;9.232;2022-07-29T05:04:16;3.42;;;1.73;;
21202;SDS011;10759;51.982;9.232;2022-07-29T05:06:45;6.00;;;1.77;;
21202;SDS011;10759;51.982;9.232;2022-07-29T05:09:15;4.60;;;2.20;;
21202;SDS011;10759;51.982;9.232;2022-07-29T05:11:43;3.22;;;2.30;;
21202;SDS011;10759;51.982;9.232;2022-07-29T05:14:12;4.45;;;2.30;;
21202;SDS011;10759;51.982;9.232;2022-07-29T05:16:41;3.15;;;2.20;;
21202;SDS011;10759;51.982;9.232;2022-07-29T05:19:09;9.32;;;3.47;;
21202;SDS011;10759;51.982;9.232;2022-07-29T05:21:40;4.38;;;2.42;;
21202;SDS011;10759;51.982;9.232;2022-07-29T05:24:09;5.28;;;2.30;;
21202;SDS011;10759;51.982;9.232;2022-07-29T05:26:40;3.10;;;1.77;;
21202;SDS011;10759;51.982;9.232;2022-07-29T05:29:08;3.47;;;1.52;;
21202;SDS011;10759;51.982;9.232;2022-07-29T05:31:57;3.78;;;1.90;;
21202;SDS011;10759;51.982;9.232;2022-07-29T05:34:25;3.42;;;2.03;;
21202;SDS011;10759;51.982;9.232;2022-07-29T05:36:53;3.45;;;2.17;;
21202;SDS011;10759;51.982;9.232;2022-07-29T05:39:22;8.57;;;1.95;;
21202;SDS011;10759;51.982;9.232;2022-07-29T05:42:11;2.45;;;1.70;;
21202;SDS011;10759;51.982;9.232;2022-07-29T05:44:39;1.83;;;1.67;;
21202;SDS011;10759;51.982;9.232;2022-07-29T05:47:08;2.47;;;1.60;;
21202;SDS011;10759;51.982;9.232;2022-07-29T05:49:36;3.80;;;2.10;;
21202;SDS011;10759;51.982;9.232;2022-07-29T05:52:04;7.57;;;2.20;;
21202;SDS011;10759;51.982;9.232;2022-07-29T05:54:32;2.45;;;1.73;;
21202;SDS011;10759;51.982;9.232;2022-07-29T05:57:02;3.15;;;1.90;;
21202;SDS011;10759;51.982;9.232;2022-07-29T05:59:32;2.97;;;1.73;;
21202;SDS011;10759;51.982;9.232;2022-07-29T06:02:03;4.13;;;2.28;;
21202;SDS011;10759;51.982;9.232;2022-07-29T06:04:33;5.73;;;2.20;;
21202;SDS011;10759;51.982;9.232;2022-07-29T06:07:01;3.03;;;1.60;;
21202;SDS011;10759;51.982;9.232;2022-07-29T06:09:29;3.75;;;2.05;;
21202;SDS011;10759;51.982;9.232;2022-07-29T06:12:01;2.08;;;1.88;;
21202;SDS011;10759;51.982;9.232;2022-07-29T06:14:31;3.85;;;2.05;;
21202;SDS011;10759;51.982;9.232;2022-07-29T06:17:00;3.22;;;1.58;;
21202;SDS011;10759;51.982;9.232;2022-07-29T06:19:28;3.67;;;1.73;;
21202;SDS011;10759;51.982;9.232;2022-07-29T06:21:56;6.32;;;2.38;;
21202;SDS011;10759;51.982;9.232;2022-07-29T06:24:24;5.13;;;1.85;;
21202;SDS011;10759;51.982;9.232;2022-07-29T06:26:52;4.05;;;1.95;;
21202;SDS011;10759;51.982;9.232;2022-07-29T06:29:20;3.95;;;1.60;;
21202;SDS011;10759;51.982;9.232;2022-07-29T06:31:50;3.67;;;1.55;;
21202;SDS011;10759;51.982;9.232;2022-07-29T06:34:18;2.88;;;1.70;;
21202;SDS011;10759;51.982;9.232;2022-07-29T06:36:47;3.00;;;1.77;;
21202;SDS011;10759;51.982;9.232;2022-07-29T06:39:17;3.20;;;1.88;;
21202;SDS011;10759;51.982;9.232;2022-07-29T06:41:46;4.55;;;1.67;;
21202;SDS011;10759;51.982;9.232;2022-07-29T06:44:15;3.95;;;2.45;;
21202;SDS011;10759;51.982;9.232;2022-07-29T06:46:45;2.58;;;1.58;;
21202;SDS011;10759;51.982;9.232;2022-07-29T06:49:16;4.43;;;2.00;;
21202;SDS011;10759;51.982;9.232;2022-07-29T06:51:45;5.25;;;2.00;;
21202;SDS011;10759;51.982;9.232;2022-07-29T06:54:13;4.57;;;1.83;;
21202;SDS011;10759;51.982;9.232;2022-07-29T06:56:41;4.50;;;2.38;;
21202;SDS011;10759;51.982;9.232;2022-07-29T06:59:10;3.67;;;1.75;;
21202;SDS011;10759;51.982;9.232;2022-07-29T07:01:40;3.42;;;1.90;;
21202;SDS011;10759;51.982;9.232;2022-07-29T07:04:10;2.50;;;1.70;;
21202;SDS011;10759;51.982;9.232;2022-07-29T07:06:41;5.43;;;1.92;;
21202;SDS011;10759;51.982;9.232;2022-07-29T07:11:38;6.00;;;1.70;;
21202;SDS011;10759;51.982;9.232;2022-07-29T07:14:06;3.33;;;1.70;;
21202;SDS011;10759;51.982;9.232;2022-07-29T07:16:34;4.65;;;1.63;;
21202;SDS011;10759;51.982;9.232;2022-07-29T07:19:03;4.93;;;2.10;;
21202;SDS011;10759;51.982;9.232;2022-07-29T07:21:31;2.42;;;1.60;;
21202;SDS011;10759;51.982;9.232;2022-07-29T07:26:30;4.63;;;2.30;;
21202;SDS011;10759;51.982;9.232;2022-07-29T07:28:59;2.88;;;1.90;;
21202;SDS011;10759;51.982;9.232;2022-07-29T07:31:27;3.13;;;2.10;;
21202;SDS011;10759;51.982;9.232;2022-07-29T07:33:55;4.30;;;2.03;;
21202;SDS011;10759;51.982;9.232;2022-07-29T07:36:23;3.85;;;1.60;;
21202;SDS011;10759;51.982;9.232;2022-07-29T07:38:51;2.80;;;1.73;;
21202;SDS011;10759;51.982;9.232;2022-07-29T07:41:21;2.53;;;1.90;;
21202;SDS011;10759;51.982;9.232;2022-07-29T07:43:49;4.00;;;1.92;;
21202;SDS011;10759;51.982;9.232;2022-07-29T07:46:17;3.40;;;2.03;;
21202;SDS011;10759;51.982;9.232;2022-07-29T07:48:46;6.95;;;1.83;;
21202;SDS011;10759;51.982;9.232;2022-07-29T07:51:14;3.33;;;1.70;;
21202;SDS011;10759;51.982;9.232;2022-07-29T07:53:42;7.85;;;2.00;;
21202;SDS011;10759;51.982;9.232;2022-07-29T07:56:11;4.60;;;1.92;;
21202;SDS011;10759;51.982;9.232;2022-07-29T07:58:41;6.63;;;2.17;;
21202;SDS011;10759;51.982;9.232;2022-07-29T08:01:09;4.10;;;2.00;;
21202;SDS011;10759;51.982;9.232;2022-07-29T08:03:38;4.10;;;2.05;;
21202;SDS011;10759;51.982;9.232;2022-07-29T08:06:06;4.40;;;1.67;;
21202;SDS011;10759;51.982;9.232;2022-07-29T08:08:35;3.00;;;1.70;;
21202;SDS011;10759;51.982;9.232;2022-07-29T08:11:03;2.20;;;1.70;;
21202;SDS011;10759;51.982;9.232;2022-07-29T08:13:35;6.20;;;2.25;;
21202;SDS011;10759;51.982;9.232;2022-07-29T08:16:06;6.90;;;1.90;;
21202;SDS011;10759;51.982;9.232;2022-07-29T08:18:42;7.15;;;1.80;;
21202;SDS011;10759;51.982;9.232;2022-07-29T08:21:11;3.30;;;1.90;;
21202;SDS011;10759;51.982;9.232;2022-07-29T08:23:41;3.73;;;1.57;;
21202;SDS011;10759;51.982;9.232;2022-07-29T08:26:26;3.15;;;1.70;;
21202;SDS011;10759;51.982;9.232;2022-07-29T08:28:54;3.78;;;1.52;;
21202;SDS011;10759;51.982;9.232;2022-07-29T08:31:24;3.25;;;1.80;;
21202;SDS011;10759;51.982;9.232;2022-07-29T08:33:52;5.47;;;2.00;;
21202;SDS011;10759;51.982;9.232;2022-07-29T08:36:22;3.72;;;1.88;;
21202;SDS011;10759;51.982;9.232;2022-07-29T08:38:51;4.75;;;1.80;;
21202;SDS011;10759;51.982;9.232;2022-07-29T08:41:19;3.47;;;1.90;;
21202;SDS011;10759;51.982;9.232;2022-07-29T08:43:47;3.60;;;1.67;;
21202;SDS011;10759;51.982;9.232;2022-07-29T08:46:16;4.00;;;1.70;;
21202;SDS011;10759;51.982;9.232;2022-07-29T08:48:47;5.00;;;1.67;;
21202;SDS011;10759;51.982;9.232;2022-07-29T08:51:16;2.80;;;1.52;;
21202;SDS011;10759;51.982;9.232;2022-07-29T08:56:14;4.18;;;1.77;;
21202;SDS011;10759;51.982;9.232;2022-07-29T08:58:44;3.10;;;1.75;;
21202;SDS011;10759;51.982;9.232;2022-07-29T09:01:21;3.55;;;1.85;;
21202;SDS011;10759;51.982;9.232;2022-07-29T09:04:04;4.30;;;1.70;;
21202;SDS011;10759;51.982;9.232;2022-07-29T09:06:37;3.30;;;1.58;;
21202;SDS011;10759;51.982;9.232;2022-07-29T09:09:08;5.32;;;1.60;;
21202;SDS011;10759;51.982;9.232;2022-07-29T09:11:36;4.13;;;2.00;;
21202;SDS011;10759;51.982;9.232;2022-07-29T09:14:04;4.60;;;1.90;;
21202;SDS011;10759;51.982;9.232;2022-07-29T09:19:26;6.55;;;1.58;;
21202;SDS011;10759;51.982;9.232;2022-07-29T09:21:56;4.30;;;2.10;;
21202;SDS011;10759;51.982;9.232;2022-07-29T09:24:26;6.72;;;1.65;;
21202;SDS011;10759;51.982;9.232;2022-07-29T09:27:08;2.22;;;1.67;;
21202;SDS011;10759;51.982;9.232;2022-07-29T09:29:38;5.13;;;1.55;;
21202;SDS011;10759;51.982;9.232;2022-07-29T09:32:08;7.03;;;2.30;;
21202;SDS011;10759;51.982;9.232;2022-07-29T09:34:39;3.85;;;1.90;;
21202;SDS011;10759;51.982;9.232;2022-07-29T09:37:07;4.47;;;1.57;;
21202;SDS011;10759;51.982;9.232;2022-07-29T09:39:36;4.00;;;1.70;;
21202;SDS011;10759;51.982;9.232;2022-07-29T09:42:12;3.70;;;1.65;;
21202;SDS011;10759;51.982;9.232;2022-07-29T09:44:43;2.83;;;2.20;;
21202;SDS011;10759;51.982;9.232;2022-07-29T09:47:13;6.78;;;1.92;;
21202;SDS011;10759;51.982;9.232;2022-07-29T09:49:54;4.90;;;2.05;;
21202;SDS011;10759;51.982;9.232;2022-07-29T09:52:24;6.25;;;2.22;;
21202;SDS011;10759;51.982;9.232;2022-07-29T09:54:53;4.22;;;1.90;;
21202;SDS011;10759;51.982;9.232;2022-07-29T09:57:31;2.72;;;1.90;;
21202;SDS011;10759;51.982;9.232;2022-07-29T10:00:00;4.63;;;1.50;;
21202;SDS011;10759;51.982;9.232;2022-07-29T10:02:37;3.65;;;1.88;;
21202;SDS011;10759;51.982;9.232;2022-07-29T10:05:18;4.68;;;1.85;;
21202;SDS011;10759;51.982;9.232;2022-07-29T10:07:48;2.95;;;1.67;;
21202;SDS011;10759;51.982;9.232;2022-07-29T10:10:23;4.40;;;1.80;;
21202;SDS011;10759;51.982;9.232;2022-07-29T10:12:53;4.40;;;1.60;;
21202;SDS011;10759;51.982;9.232;2022-07-29T10:15:30;5.25;;;1.77;;
21202;SDS011;10759;51.982;9.232;2022-07-29T10:17:59;2.60;;;1.77;;
21202;SDS011;10759;51.982;9.232;2022-07-29T10:20:28;4.18;;;1.67;;
21202;SDS011;10759;51.982;9.232;2022-07-29T10:22:57;4.20;;;1.83;;
21202;SDS011;10759;51.982;9.232;2022-07-29T10:25:25;3.95;;;2.00;;
21202;SDS011;10759;51.982;9.232;2022-07-29T10:27:54;1.90;;;1.70;;
21202;SDS011;10759;51.982;9.232;2022-07-29T10:30:23;3.35;;;1.90;;
21202;SDS011;10759;51.982;9.232;2022-07-29T10:33:10;2.75;;;1.77;;
21202;SDS011;10759;51.982;9.232;2022-07-29T10:38:51;6.28;;;2.25;;
21202;SDS011;10759;51.982;9.232;2022-07-29T10:41:33;7.82;;;2.53;;
21202;SDS011;10759;51.982;9.232;2022-07-29T10:44:14;4.63;;;2.53;;
21202;SDS011;10759;51.982;9.232;2022-07-29T10:46:49;9.20;;;2.33;;
21202;SDS011;10759;51.982;9.232;2022-07-29T10:49:20;3.00;;;2.30;;
21202;SDS011;10759;51.982;9.232;2022-07-29T10:51:53;3.45;;;1.90;;
21202;SDS011;10759;51.982;9.232;2022-07-29T10:54:39;4.13;;;2.15;;
21202;SDS011;10759;51.982;9.232;2022-07-29T11:00:25;3.33;;;2.20;;
21202;SDS011;10759;51.982;9.232;2022-07-29T11:02:57;5.40;;;1.80;;
21202;SDS011;10759;51.982;9.232;2022-07-29T11:05:30;6.03;;;2.35;;
21202;SDS011;10759;51.982;9.232;2022-07-29T11:08:26;8.40;;;2.00;;
21202;SDS011;10759;51.982;9.232;2022-07-29T11:14:03;4.93;;;2.40;;
21202;SDS011;10759;51.982;9.232;2022-07-29T11:19:32;4.45;;;2.30;;
21202;SDS011;10759;51.982;9.232;2022-07-29T11:22:01;3.00;;;2.28;;
21202;SDS011;10759;51.982;9.232;2022-07-29T11:24:32;4.40;;;2.30;;
21202;SDS011;10759;51.982;9.232;2022-07-29T11:27:11;5.97;;;2.15;;
21202;SDS011;10759;51.982;9.232;2022-07-29T11:29:49;4.43;;;2.75;;
21202;SDS011;10759;51.982;9.232;2022-07-29T11:32:19;10.15;;;4.05;;
21202;SDS011;10759;51.982;9.232;2022-07-29T11:34:50;5.13;;;2.22;;
21202;SDS011;10759;51.982;9.232;2022-07-29T11:37:44;4.88;;;2.30;;
21202;SDS011;10759;51.982;9.232;2022-07-29T11:40:34;4.35;;;2.40;;
21202;SDS011;10759;51.982;9.232;2022-07-29T11:43:03;6.30;;;2.50;;
21202;SDS011;10759;51.982;9.232;2022-07-29T11:45:44;7.57;;;2.47;;
21202;SDS011;10759;51.982;9.232;2022-07-29T11:48:17;4.28;;;1.88;;
21202;SDS011;10759;51.982;9.232;2022-07-29T11:50:57;4.22;;;2.50;;
21202;SDS011;10759;51.982;9.232;2022-07-29T11:53:26;5.63;;;2.75;;
21202;SDS011;10759;51.982;9.232;2022-07-29T11:56:00;6.43;;;2.00;;
21202;SDS011;10759;51.982;9.232;2022-07-29T11:58:29;6.88;;;3.13;;
21202;SDS011;10759;51.982;9.232;2022-07-29T12:00:58;4.90;;;2.47;;
21202;SDS011;10759;51.982;9.232;2022-07-29T12:03:30;5.63;;;2.60;;
21202;SDS011;10759;51.982;9.232;2022-07-29T12:06:02;5.75;;;2.67;;
21202;SDS011;10759;51.982;9.232;2022-07-29T12:08:38;7.72;;;3.17;;
21202;SDS011;10759;51.982;9.232;2022-07-29T12:11:16;5.35;;;2.78;;
21202;SDS011;10759;51.982;9.232;2022-07-29T12:13:46;4.60;;;2.53;;
21202;SDS011;10759;51.982;9.232;2022-07-29T12:16:15;7.15;;;2.80;;
21202;SDS011;10759;51.982;9.232;2022-07-29T12:18:55;5.37;;;2.57;;
21202;SDS011;10759;51.982;9.232;2022-07-29T12:21:28;4.18;;;2.72;;
21202;SDS011;10759;51.982;9.232;2022-07-29T12:23:56;5.35;;;2.75;;
21202;SDS011;10759;51.982;9.232;2022-07-29T12:26:36;7.35;;;3.28;;
21202;SDS011;10759;51.982;9.232;2022-07-29T12:29:17;8.40;;;2.97;;
21202;SDS011;10759;51.982;9.232;2022-07-29T12:32:00;5.00;;;2.85;;
21202;SDS011;10759;51.982;9.232;2022-07-29T12:34:30;4.70;;;2.55;;
21202;SDS011;10759;51.982;9.232;2022-07-29T12:36:58;5.78;;;2.60;;
21202;SDS011;10759;51.982;9.232;2022-07-29T12:39:28;5.60;;;2.85;;
21202;SDS011;10759;51.982;9.232;2022-07-29T12:41:57;7.80;;;3.30;;
21202;SDS011;10759;51.982;9.232;2022-07-29T12:44:43;8.68;;;2.90;;
21202;SDS011;10759;51.982;9.232;2022-07-29T12:47:12;5.53;;;3.10;;
21202;SDS011;10759;51.982;9.232;2022-07-29T12:49:40;4.22;;;3.22;;
21202;SDS011;10759;51.982;9.232;2022-07-29T12:52:27;5.60;;;3.60;;
21202;SDS011;10759;51.982;9.232;2022-07-29T12:54:57;6.22;;;2.70;;
21202;SDS011;10759;51.982;9.232;2022-07-29T12:57:27;6.13;;;3.30;;
21202;SDS011;10759;51.982;9.232;2022-07-29T13:02:42;5.28;;;3.53;;
21202;SDS011;10759;51.982;9.232;2022-07-29T13:05:10;4.72;;;2.92;;
21202;SDS011;10759;51.982;9.232;2022-07-29T13:07:39;4.00;;;3.03;;
21202;SDS011;10759;51.982;9.232;2022-07-29T13:10:23;8.60;;;3.40;;
21202;SDS011;10759;51.982;9.232;2022-07-29T13:13:02;3.83;;;2.95;;
21202;SDS011;10759;51.982;9.232;2022-07-29T13:15:31;3.60;;;3.30;;
21202;SDS011;10759;51.982;9.232;2022-07-29T13:18:00;7.60;;;3.13;;
21202;SDS011;10759;51.982;9.232;2022-07-29T13:20:29;11.75;;;3.97;;
21202;SDS011;10759;51.982;9.232;2022-07-29T13:22:58;5.93;;;3.20;;
21202;SDS011;10759;51.982;9.232;2022-07-29T13:25:28;6.13;;;3.65;;
21202;SDS011;10759;51.982;9.232;2022-07-29T13:27:58;5.95;;;3.10;;
21202;SDS011;10759;51.982;9.232;2022-07-29T13:30:28;6.30;;;3.67;;
21202;SDS011;10759;51.982;9.232;2022-07-29T13:32:56;6.88;;;3.30;;
21202;SDS011;10759;51.982;9.232;2022-07-29T13:35:24;5.40;;;3.25;;
21202;SDS011;10759;51.982;9.232;2022-07-29T13:37:56;9.10;;;3.38;;
21202;SDS011;10759;51.982;9.232;2022-07-29T13:40:24;7.28;;;3.70;;
21202;SDS011;10759;51.982;9.232;2022-07-29T13:42:52;9.75;;;3.22;;
21202;SDS011;10759;51.982;9.232;2022-07-29T13:45:20;7.60;;;3.55;;
21202;SDS011;10759;51.982;9.232;2022-07-29T13:47:50;5.70;;;3.58;;
21202;SDS011;10759;51.982;9.232;2022-07-29T13:50:20;6.72;;;3.78;;
21202;SDS011;10759;51.982;9.232;2022-07-29T13:52:48;6.18;;;3.75;;
21202;SDS011;10759;51.982;9.232;2022-07-29T13:55:17;5.75;;;3.80;;
21202;SDS011;10759;51.982;9.232;2022-07-29T13:57:45;7.97;;;3.63;;
21202;SDS011;10759;51.982;9.232;2022-07-29T14:00:14;7.30;;;3.30;;
21202;SDS011;10759;51.982;9.232;2022-07-29T14:02:42;7.28;;;3.40;;
21202;SDS011;10759;51.982;9.232;2022-07-29T14:05:12;6.95;;;3.80;;
21202;SDS011;10759;51.982;9.232;2022-07-29T14:10:09;6.20;;;3.75;;
21202;SDS011;10759;51.982;9.232;2022-07-29T14:12:37;5.93;;;3.28;;
21202;SDS011;10759;51.982;9.232;2022-07-29T14:15:08;4.63;;;3.25;;
21202;SDS011;10759;51.982;9.232;2022-07-29T14:17:37;5.40;;;2.92;;
21202;SDS011;10759;51.982;9.232;2022-07-29T14:20:05;5.55;;;3.55;;
21202;SDS011;10759;51.982;9.232;2022-07-29T14:22:35;5.45;;;3.60;;
21202;SDS011;10759;51.982;9.232;2022-07-29T14:25:10;5.13;;;3.72;;
21202;SDS011;10759;51.982;9.232;2022-07-29T14:27:40;10.25;;;3.80;;
21202;SDS011;10759;51.982;9.232;2022-07-29T14:30:09;6.57;;;3.60;;
21202;SDS011;10759;51.982;9.232;2022-07-29T14:32:38;7.55;;;4.03;;
21202;SDS011;10759;51.982;9.232;2022-07-29T14:35:06;8.02;;;4.47;;
21202;SDS011;10759;51.982;9.232;2022-07-29T14:37:36;5.60;;;3.60;;
21202;SDS011;10759;51.982;9.232;2022-07-29T14:40:06;5.65;;;4.07;;
21202;SDS011;10759;51.982;9.232;2022-07-29T14:42:35;5.38;;;3.90;;
21202;SDS011;10759;51.982;9.232;2022-07-29T14:45:05;9.57;;;3.70;;
21202;SDS011;10759;51.982;9.232;2022-07-29T14:47:34;11.77;;;3.70;;
21202;SDS011;10759;51.982;9.232;2022-07-29T14:50:03;6.07;;;3.55;;
21202;SDS011;10759;51.982;9.232;2022-07-29T14:52:32;5.10;;;3.67;;
21202;SDS011;10759;51.982;9.232;2022-07-29T14:55:02;5.35;;;3.50;;
21202;SDS011;10759;51.982;9.232;2022-07-29T14:57:45;5.50;;;3.85;;
21202;SDS011;10759;51.982;9.232;2022-07-29T15:00:14;4.93;;;3.40;;
21202;SDS011;10759;51.982;9.232;2022-07-29T15:02:43;6.70;;;3.75;;
21202;SDS011;10759;51.982;9.232;2022-07-29T15:05:28;7.38;;;3.45;;
21202;SDS011;10759;51.982;9.232;2022-07-29T15:07:56;6.63;;;4.15;;
21202;SDS011;10759;51.982;9.232;2022-07-29T15:10:26;4.93;;;3.60;;
21202;SDS011;10759;51.982;9.232;2022-07-29T15:12:55;6.20;;;4.07;;
21202;SDS011;10759;51.982;9.232;2022-07-29T15:15:23;6.30;;;3.65;;
21202;SDS011;10759;51.982;9.232;2022-07-29T15:17:52;6.15;;;3.80;;
21202;SDS011;10759;51.982;9.232;2022-07-29T15:20:20;7.43;;;4.05;;
21202;SDS011;10759;51.982;9.232;2022-07-29T15:22:50;4.28;;;3.88;;
21202;SDS011;10759;51.982;9.232;2022-07-29T15:25:19;9.15;;;3.90;;
21202;SDS011;10759;51.982;9.232;2022-07-29T15:27:48;12.38;;;4.13;;
21202;SDS011;10759;51.982;9.232;2022-07-29T15:30:19;6.18;;;3.92;;
21202;SDS011;10759;51.982;9.232;2022-07-29T15:33:00;5.80;;;4.22;;
21202;SDS011;10759;51.982;9.232;2022-07-29T15:35:29;7.65;;;4.03;;
21202;SDS011;10759;51.982;9.232;2022-07-29T15:37:57;5.97;;;4.40;;
21202;SDS011;10759;51.982;9.232;2022-07-29T15:40:25;6.32;;;4.13;;
21202;SDS011;10759;51.982;9.232;2022-07-29T15:42:56;6.80;;;4.30;;